Time;durP1;ratioP1;P1;durP2;ratioP2;P2;SDS_P1;SDS_P2;PMS_P1;PMS_P2;Temp;Humidity;BMP_temperature;BMP_pressure;BME280_temperature;BME280_humidity;BME280_pressure;Samples;Min_cycle;Max_cycle;Signal;HPM_P1;HPM_P2
2021/01/06 00:00:41;;;;;;;9.27;7.25;;;0.90;99.90;;;;;;6156071;23;20021;-84
2021/01/06 00:03:11;;;;;;;7.85;6.78;;;0.90;99.90;;;;;;6156589;23;20037;-84
2021/01/06 00:05:38;;;;;;;9.10;7.05;;;0.80;99.90;;;;;;6156558;23;20100;-85
2021/01/06 00:08:05;;;;;;;9.85;7.60;;;0.90;99.90;;;;;;6155137;23;20025;-84
2021/01/06 00:10:32;;;;;;;10.95;8.00;;;0.90;99.90;;;;;;6156628;23;20026;-84
2021/01/06 00:12:59;;;;;;;10.13;7.55;;;0.80;99.90;;;;;;6156640;23;20033;-84
2021/01/06 00:15:35;;;;;;;8.20;7.40;;;0.90;99.90;;;;;;6156476;23;20100;-84
2021/01/06 00:18:03;;;;;;;9.82;7.68;;;0.90;99.90;;;;;;6155167;23;20022;-84
2021/01/06 00:20:30;;;;;;;11.40;8.18;;;0.90;99.90;;;;;;6154788;23;20381;-84
2021/01/06 00:22:57;;;;;;;9.93;8.27;;;1.00;99.90;;;;;;6154603;23;20037;-84
2021/01/06 00:25:29;;;;;;;10.57;8.32;;;0.90;99.90;;;;;;6154431;23;20048;-83
2021/01/06 00:27:55;;;;;;;9.32;7.47;;;0.80;99.90;;;;;;6155068;23;20032;-84
2021/01/06 00:30:32;;;;;;;9.85;7.95;;;0.90;99.90;;;;;;6154405;23;20041;-84
2021/01/06 00:32:58;;;;;;;9.27;7.63;;;0.90;99.90;;;;;;6155249;23;20092;-83
2021/01/06 00:35:26;;;;;;;11.27;7.63;;;0.90;99.90;;;;;;6154418;23;20025;-84
2021/01/06 00:38:00;;;;;;;8.23;7.18;;;1.00;99.90;;;;;;6156404;23;20025;-83
2021/01/06 00:40:28;;;;;;;8.88;7.35;;;1.00;99.90;;;;;;6154461;23;20092;-83
2021/01/06 00:42:57;;;;;;;8.35;6.90;;;1.00;99.90;;;;;;6155922;23;20524;-84
2021/01/06 00:45:23;;;;;;;16.48;7.95;;;0.90;99.90;;;;;;6156154;23;20097;-84
2021/01/06 00:47:50;;;;;;;11.27;7.22;;;0.80;99.90;;;;;;6155010;23;20025;-84
2021/01/06 00:50:19;;;;;;;8.65;7.00;;;0.90;99.90;;;;;;6155867;23;20053;-84
2021/01/06 00:52:45;;;;;;;9.50;7.43;;;0.90;99.90;;;;;;6154724;23;20090;-84
2021/01/06 00:55:12;;;;;;;9.77;7.07;;;0.90;99.90;;;;;;6154326;23;20092;-84
2021/01/06 00:57:39;;;;;;;9.30;6.72;;;0.90;99.90;;;;;;6156332;23;20109;-84
2021/01/06 01:00:12;;;;;;;7.38;6.38;;;0.90;99.90;;;;;;6155102;23;20053;-83
2021/01/06 01:02:38;;;;;;;8.43;6.60;;;1.00;99.90;;;;;;6153723;23;20068;-84
2021/01/06 01:05:06;;;;;;;8.07;7.07;;;0.90;99.90;;;;;;6155991;23;20025;-84
2021/01/06 01:07:32;;;;;;;8.80;7.05;;;0.90;99.90;;;;;;6156012;23;20057;-84
2021/01/06 01:09:58;;;;;;;7.28;6.50;;;1.00;99.90;;;;;;6154263;23;20045;-84
2021/01/06 01:12:24;;;;;;;7.90;6.75;;;1.00;99.90;;;;;;6154456;23;20053;-84
2021/01/06 01:14:51;;;;;;;7.50;6.70;;;1.00;99.90;;;;;;6154495;23;20076;-83
2021/01/06 01:17:19;;;;;;;9.63;7.57;;;1.00;99.90;;;;;;6154186;23;20033;-84
2021/01/06 01:19:45;;;;;;;8.48;6.80;;;1.00;99.90;;;;;;6153889;23;20085;-83
2021/01/06 01:22:11;;;;;;;7.07;6.38;;;1.00;99.90;;;;;;6155378;23;20045;-83
2021/01/06 01:24:37;;;;;;;8.05;6.90;;;1.00;99.90;;;;;;6155817;23;20045;-83
2021/01/06 01:27:04;;;;;;;10.15;7.20;;;1.00;99.90;;;;;;6155428;23;20020;-84
2021/01/06 01:29:30;;;;;;;7.82;7.03;;;1.00;99.90;;;;;;6154500;23;20053;-83
2021/01/06 01:31:57;;;;;;;9.02;7.93;;;0.90;99.90;;;;;;6154425;23;20077;-83
2021/01/06 01:34:23;;;;;;;8.00;6.50;;;0.90;99.90;;;;;;6154154;23;20100;-83
2021/01/06 01:36:50;;;;;;;7.13;6.43;;;0.90;99.90;;;;;;6154733;23;20100;-83
2021/01/06 01:39:18;;;;;;;7.88;6.60;;;1.00;99.90;;;;;;6154693;23;20340;-84
2021/01/06 01:41:45;;;;;;;10.07;7.50;;;1.10;99.90;;;;;;6154218;23;20029;-83
2021/01/06 01:44:13;;;;;;;8.38;7.45;;;1.10;99.90;;;;;;6155659;23;20425;-83
2021/01/06 01:46:45;;;;;;;8.40;7.43;;;1.10;99.90;;;;;;6155633;23;20028;-83
2021/01/06 01:49:22;;;;;;;10.13;8.32;;;1.10;99.90;;;;;;6153941;23;20448;-83
2021/01/06 01:52:17;;;;;;;8.52;7.00;;;1.00;99.90;;;;;;6155812;23;20045;-83
2021/01/06 01:54:44;;;;;;;7.93;7.13;;;1.00;99.90;;;;;;6156014;23;20080;-83
2021/01/06 01:57:16;;;;;;;9.13;7.47;;;1.10;99.90;;;;;;6154326;23;20334;-83
2021/01/06 01:59:52;;;;;;;9.05;8.02;;;1.10;99.90;;;;;;6155772;23;20021;-83
2021/01/06 02:02:36;;;;;;;7.95;7.15;;;1.10;99.90;;;;;;6155532;23;20109;-83
2021/01/06 02:05:08;;;;;;;10.52;7.50;;;1.20;99.90;;;;;;6155855;23;20028;-83
2021/01/06 02:07:57;;;;;;;11.05;7.60;;;1.10;99.90;;;;;;6155426;23;20499;-83
2021/01/06 02:10:32;;;;;;;10.27;8.50;;;1.10;99.90;;;;;;6155742;23;20056;-83
2021/01/06 02:13:04;;;;;;;10.38;8.68;;;0.90;99.90;;;;;;6155479;23;20100;-83
2021/01/06 02:15:36;;;;;;;10.00;8.25;;;0.90;99.90;;;;;;6155714;23;20042;-83
2021/01/06 02:18:05;;;;;;;11.65;8.77;;;0.90;99.90;;;;;;6155527;23;20141;-83
2021/01/06 02:20:31;;;;;;;11.98;8.80;;;0.90;99.90;;;;;;6155754;23;20456;-83
2021/01/06 02:22:59;;;;;;;10.15;8.43;;;1.00;99.90;;;;;;6155777;23;20018;-83
2021/01/06 02:25:28;;;;;;;9.80;8.65;;;1.00;99.90;;;;;;6155310;23;20468;-84
2021/01/06 02:27:57;;;;;;;8.82;7.93;;;1.00;99.90;;;;;;6154631;23;20105;-84
2021/01/06 02:30:24;;;;;;;10.88;8.45;;;1.00;99.90;;;;;;6155386;23;20065;-84
2021/01/06 02:32:51;;;;;;;9.27;7.65;;;1.00;99.90;;;;;;6153890;23;20081;-84
2021/01/06 02:35:18;;;;;;;11.07;8.18;;;1.00;99.90;;;;;;6155661;23;20472;-84
2021/01/06 02:37:48;;;;;;;9.32;7.88;;;1.10;99.90;;;;;;6157648;23;20028;-83
2021/01/06 02:40:16;;;;;;;9.60;7.90;;;1.10;99.90;;;;;;6157472;23;20511;-84
2021/01/06 02:42:43;;;;;;;8.75;7.85;;;1.10;99.90;;;;;;6156568;23;20030;-83
2021/01/06 02:45:13;;;;;;;8.43;7.57;;;1.00;99.90;;;;;;6157851;23;20056;-84
2021/01/06 02:47:41;;;;;;;8.82;7.57;;;1.10;99.90;;;;;;6156503;23;20048;-84
2021/01/06 02:50:11;;;;;;;9.15;7.78;;;1.10;99.90;;;;;;6157774;23;20021;-84
2021/01/06 02:52:49;;;;;;;8.63;7.68;;;1.10;99.90;;;;;;6157250;23;20056;-84
2021/01/06 02:55:17;;;;;;;9.45;7.93;;;1.10;99.90;;;;;;6157721;23;20021;-84
2021/01/06 02:57:45;;;;;;;14.25;10.07;;;1.10;99.90;;;;;;6156237;23;20028;-84
2021/01/06 03:00:20;;;;;;;14.90;10.13;;;1.10;99.90;;;;;;6156475;23;20101;-83
2021/01/06 03:02:48;;;;;;;11.20;8.32;;;1.00;99.90;;;;;;6155488;23;20022;-84
2021/01/06 03:05:30;;;;;;;13.48;9.52;;;1.00;99.90;;;;;;6156229;23;20041;-85
2021/01/06 03:07:56;;;;;;;14.07;10.00;;;1.10;99.90;;;;;;6157610;23;20100;-84
2021/01/06 03:10:23;;;;;;;15.88;10.02;;;1.10;99.90;;;;;;6155984;23;20036;-84
2021/01/06 03:12:52;;;;;;;16.00;10.60;;;1.10;99.90;;;;;;6155865;23;20025;-85
2021/01/06 03:15:21;;;;;;;18.40;10.32;;;1.00;99.90;;;;;;6155660;23;20037;-85
2021/01/06 03:17:48;;;;;;;17.27;10.55;;;0.90;99.90;;;;;;6156120;23;20025;-84
2021/01/06 03:20:26;;;;;;;17.58;10.85;;;1.00;99.90;;;;;;6156125;23;20021;-85
2021/01/06 03:23:02;;;;;;;15.35;10.38;;;1.00;99.90;;;;;;6157050;23;20028;-85
2021/01/06 03:25:29;;;;;;;18.33;10.75;;;1.10;99.90;;;;;;6156853;23;20068;-85
2021/01/06 03:27:56;;;;;;;18.13;10.70;;;1.00;99.90;;;;;;6156250;23;20048;-85
2021/01/06 03:30:26;;;;;;;17.83;10.55;;;1.00;99.90;;;;;;6155559;23;20080;-85
2021/01/06 03:33:19;;;;;;;23.17;11.75;;;1.00;99.90;;;;;;6155453;23;20056;-84
2021/01/06 03:35:51;;;;;;;19.50;11.82;;;0.90;99.90;;;;;;6156796;23;20017;-84
2021/01/06 03:38:30;;;;;;;19.02;11.15;;;1.00;99.90;;;;;;6155496;23;20021;-84
2021/01/06 03:40:57;;;;;;;21.35;11.18;;;1.00;99.90;;;;;;6155343;23;20024;-83
2021/01/06 03:43:26;;;;;;;23.92;12.05;;;0.90;99.90;;;;;;6155213;23;20407;-83
2021/01/06 03:45:58;;;;;;;22.08;11.57;;;1.00;99.90;;;;;;6155232;23;20025;-83
2021/01/06 03:49:07;;;;;;;20.25;11.50;;;1.00;99.90;;;;;;6157185;23;20030;-84
2021/01/06 03:51:45;;;;;;;25.02;12.48;;;1.00;99.90;;;;;;6077018;23;20087;-83
2021/01/06 03:54:21;;;;;;;20.40;12.45;;;0.90;99.90;;;;;;6155323;23;20041;-84
2021/01/06 03:56:51;;;;;;;19.42;12.10;;;1.00;99.90;;;;;;6155774;23;20048;-83
2021/01/06 03:59:24;;;;;;;21.73;12.80;;;1.00;99.90;;;;;;6155206;23;20090;-83
2021/01/06 04:02:07;;;;;;;23.98;12.80;;;1.00;99.90;;;;;;6156811;23;20041;-83
2021/01/06 04:05:02;;;;;;;21.65;12.35;;;1.00;99.90;;;;;;6156870;23;20349;-83
2021/01/06 04:07:52;;;;;;;22.02;12.05;;;1.00;99.90;;;;;;6157341;23;20096;-83
2021/01/06 04:10:29;;;;;;;24.33;12.80;;;1.00;99.90;;;;;;6165170;23;20465;-82
2021/01/06 04:12:55;;;;;;;23.25;12.48;;;1.10;99.90;;;;;;6174069;23;20033;-83
2021/01/06 04:15:21;;;;;;;26.08;13.05;;;1.10;99.90;;;;;;6174724;23;20052;-82
2021/01/06 04:17:53;;;;;;;21.75;11.93;;;1.10;99.90;;;;;;6168284;23;20060;-84
2021/01/06 04:20:40;;;;;;;25.50;12.80;;;1.10;99.90;;;;;;6161677;23;20017;-84
2021/01/06 04:23:13;;;;;;;25.42;13.00;;;1.00;99.90;;;;;;6159948;23;20022;-83
2021/01/06 04:25:47;;;;;;;29.08;13.25;;;1.00;99.90;;;;;;6158513;23;20026;-81
2021/01/06 04:28:23;;;;;;;24.60;13.57;;;1.00;99.90;;;;;;6159373;23;20033;-83
2021/01/06 04:30:53;;;;;;;28.30;13.95;;;0.90;99.90;;;;;;6157415;23;20025;-82
2021/01/06 04:33:30;;;;;;;30.77;14.77;;;0.90;99.90;;;;;;6161298;23;20029;-82
2021/01/06 04:35:58;;;;;;;29.02;14.20;;;0.90;99.90;;;;;;6158431;23;20060;-83
2021/01/06 04:38:27;;;;;;;24.73;13.18;;;0.80;99.90;;;;;;6164467;23;20021;-83
2021/01/06 04:41:00;;;;;;;27.00;14.57;;;0.80;99.90;;;;;;6157686;23;20028;-84
2021/01/06 04:43:40;;;;;;;29.10;14.38;;;0.80;99.90;;;;;;6158735;23;20487;-83
2021/01/06 04:46:28;;;;;;;22.75;12.65;;;0.80;99.90;;;;;;6158751;23;20060;-83
2021/01/06 04:49:02;;;;;;;25.30;12.82;;;0.80;99.90;;;;;;6157669;23;20365;-83
2021/01/06 04:51:31;;;;;;;23.17;12.15;;;0.80;99.90;;;;;;6155696;23;20032;-82
2021/01/06 04:54:18;;;;;;;22.65;12.30;;;0.80;99.90;;;;;;6156417;23;20472;-82
2021/01/06 04:56:56;;;;;;;22.33;11.38;;;0.70;99.90;;;;;;6155667;23;20102;-82
2021/01/06 04:59:32;;;;;;;22.75;12.60;;;0.70;99.90;;;;;;6157224;23;20457;-81
2021/01/06 05:14:19;;;;;;;27.08;12.45;;;0.80;99.90;;;;;;6189333;23;20163;-81
2021/01/06 05:16:49;;;;;;;20.23;11.85;;;0.80;99.90;;;;;;6188828;23;20029;-81
2021/01/06 05:19:30;;;;;;;26.20;12.23;;;0.80;99.90;;;;;;6162117;23;20468;-81
2021/01/06 05:21:57;;;;;;;24.58;11.88;;;0.80;99.90;;;;;;6188821;23;20456;-81
2021/01/06 05:24:42;;;;;;;22.45;11.43;;;0.80;99.90;;;;;;6164477;23;20220;-81
2021/01/06 05:27:14;;;;;;;25.63;12.50;;;0.80;99.90;;;;;;6162921;23;20044;-81
2021/01/06 05:29:49;;;;;;;21.92;11.48;;;0.70;99.90;;;;;;6162379;23;20413;-81
2021/01/06 05:32:39;;;;;;;18.95;10.45;;;0.80;99.90;;;;;;6188531;23;20021;-81
2021/01/06 05:35:14;;;;;;;25.67;12.15;;;0.90;99.90;;;;;;6161644;23;20403;-80
2021/01/06 05:37:43;;;;;;;27.83;12.15;;;0.80;99.90;;;;;;6162085;23;20388;-81
2021/01/06 05:40:14;;;;;;;24.27;12.13;;;0.80;99.90;;;;;;6187994;23;20021;-81
2021/01/06 05:42:52;;;;;;;20.02;10.75;;;0.80;99.90;;;;;;6161653;23;20028;-81
2021/01/06 05:45:23;;;;;;;26.05;12.27;;;0.80;99.90;;;;;;6187823;23;20028;-80
2021/01/06 05:48:22;;;;;;;19.88;10.48;;;0.70;99.90;;;;;;6161405;23;20021;-80
2021/01/06 05:51:01;;;;;;;18.85;9.88;;;0.80;99.90;;;;;;6161785;23;20028;-80
2021/01/06 05:53:51;;;;;;;21.92;10.32;;;0.80;99.90;;;;;;6161284;23;20076;-80
2021/01/06 05:56:55;;;;;;;21.10;11.25;;;0.90;99.90;;;;;;6161195;23;20027;-81
2021/01/06 05:59:38;;;;;;;16.38;10.27;;;0.90;99.90;;;;;;6161052;23;20021;-80
2021/01/06 06:02:08;;;;;;;23.08;11.07;;;0.90;99.90;;;;;;6161196;23;20380;-81
2021/01/06 06:04:37;;;;;;;17.50;11.25;;;0.80;99.90;;;;;;6186958;23;20044;-81
2021/01/06 06:07:12;;;;;;;22.58;11.27;;;0.80;99.90;;;;;;6187577;23;20067;-81
2021/01/06 06:10:00;;;;;;;19.70;10.25;;;0.80;99.90;;;;;;6186391;23;20029;-81
2021/01/06 06:12:46;;;;;;;16.10;9.65;;;0.80;99.90;;;;;;6165360;23;20044;-81
2021/01/06 06:15:41;;;;;;;20.42;11.43;;;0.90;99.90;;;;;;6185654;23;20356;-81
2021/01/06 06:18:26;;;;;;;18.58;10.40;;;0.90;99.90;;;;;;6186886;23;20408;-81
2021/01/06 06:21:00;;;;;;;22.08;10.73;;;0.90;99.90;;;;;;6186532;23;20076;-81
2021/01/06 06:24:03;;;;;;;19.98;10.55;;;0.80;99.90;;;;;;6185802;23;20096;-81
2021/01/06 06:27:01;;;;;;;22.75;11.52;;;0.80;99.90;;;;;;6153475;23;20056;-81
2021/01/06 06:29:55;;;;;;;17.90;10.40;;;0.70;99.90;;;;;;6184061;23;20072;-81
2021/01/06 06:32:30;;;;;;;23.20;11.45;;;0.80;99.90;;;;;;6188646;23;20032;-82
2021/01/06 06:35:05;;;;;;;20.42;11.43;;;0.70;99.90;;;;;;6193388;23;20025;-82
2021/01/06 06:37:32;;;;;;;17.85;10.20;;;0.70;99.90;;;;;;6193848;23;20359;-82
2021/01/06 06:39:58;;;;;;;21.10;11.65;;;0.80;99.90;;;;;;6191413;23;20053;-82
2021/01/06 06:42:27;;;;;;;17.33;10.15;;;0.80;99.90;;;;;;6191744;23;20023;-82
2021/01/06 06:45:00;;;;;;;18.50;10.60;;;0.90;99.90;;;;;;6190619;23;20526;-82
2021/01/06 06:47:51;;;;;;;21.70;11.75;;;0.90;99.90;;;;;;6191893;23;20044;-82
2021/01/06 06:50:44;;;;;;;22.10;12.15;;;0.80;99.90;;;;;;6190961;23;20025;-82
2021/01/06 06:53:31;;;;;;;19.83;12.02;;;0.80;99.90;;;;;;6190608;23;20154;-82
2021/01/06 06:56:23;;;;;;;23.17;12.80;;;0.90;99.90;;;;;;6190477;23;20049;-82
2021/01/06 06:59:05;;;;;;;55.92;35.88;;;0.80;99.90;;;;;;6188926;23;20017;-82
2021/01/06 07:01:40;;;;;;;25.75;13.93;;;0.80;99.90;;;;;;6187821;23;20025;-82
2021/01/06 07:04:27;;;;;;;23.30;13.18;;;0.80;99.90;;;;;;6189674;23;20048;-82
2021/01/06 07:06:57;;;;;;;26.10;13.63;;;0.80;99.90;;;;;;6187617;23;20072;-82
2021/01/06 07:09:29;;;;;;;21.48;12.75;;;0.80;99.90;;;;;;6188851;23;20049;-82
2021/01/06 07:12:10;;;;;;;24.13;12.68;;;0.80;99.90;;;;;;6186434;23;20079;-82
2021/01/06 07:14:39;;;;;;;25.10;12.80;;;0.80;99.90;;;;;;6187482;23;20032;-82
2021/01/06 07:17:10;;;;;;;20.70;11.85;;;0.80;99.90;;;;;;6161775;23;20025;-82
2021/01/06 07:19:48;;;;;;;23.63;12.88;;;0.80;99.90;;;;;;6188858;23;20057;-81
2021/01/06 07:22:33;;;;;;;32.63;13.88;;;0.90;99.90;;;;;;6163220;23;20021;-82
2021/01/06 07:25:12;;;;;;;30.58;13.05;;;0.80;99.90;;;;;;6190624;23;20044;-82
2021/01/06 07:27:38;;;;;;;26.20;13.52;;;0.70;99.90;;;;;;6163167;23;20021;-82
2021/01/06 07:30:08;;;;;;;24.60;12.75;;;0.70;99.90;;;;;;6163577;23;20399;-82
2021/01/06 07:32:43;;;;;;;24.73;13.00;;;0.70;99.90;;;;;;6162894;23;20096;-82
2021/01/06 07:35:23;;;;;;;26.17;12.95;;;0.70;99.90;;;;;;6162811;23;20519;-83
2021/01/06 07:38:02;;;;;;;33.40;14.18;;;0.80;99.90;;;;;;6164731;23;20071;-82
2021/01/06 07:40:33;;;;;;;21.35;12.63;;;0.80;99.90;;;;;;6189342;23;20025;-82
2021/01/06 07:43:16;;;;;;;24.73;12.88;;;0.90;99.90;;;;;;6164165;23;20071;-83
2021/01/06 07:45:59;;;;;;;27.17;15.68;;;0.80;99.90;;;;;;6163290;23;20021;-82
2021/01/06 07:48:41;;;;;;;26.98;15.07;;;0.80;99.90;;;;;;6162926;23;20025;-83
2021/01/06 07:51:11;;;;;;;24.92;12.68;;;0.80;99.90;;;;;;6189217;23;20024;-83
2021/01/06 07:54:08;;;;;;;23.92;12.95;;;0.90;99.90;;;;;;6163355;23;20060;-83
2021/01/06 07:57:05;;;;;;;27.85;13.10;;;0.90;99.90;;;;;;6189141;23;20063;-82
2021/01/06 07:59:52;;;;;;;20.88;11.68;;;0.90;99.90;;;;;;6188351;23;20053;-82
2021/01/06 08:02:39;;;;;;;21.05;12.30;;;0.90;99.90;;;;;;6161798;23;20029;-82
2021/01/06 08:05:27;;;;;;;26.08;13.13;;;0.90;99.90;;;;;;6162128;23;20472;-82
2021/01/06 08:08:15;;;;;;;20.52;11.75;;;0.90;99.90;;;;;;6162144;23;20060;-82
2021/01/06 08:10:45;;;;;;;19.63;10.82;;;1.00;99.90;;;;;;6189014;23;20522;-82
2021/01/06 08:13:23;;;;;;;17.90;10.88;;;1.00;99.90;;;;;;6176485;23;20025;-82
2021/01/06 08:16:15;;;;;;;21.92;12.30;;;1.00;99.90;;;;;;6186770;23;20025;-82
2021/01/06 08:18:54;;;;;;;22.05;11.75;;;0.90;99.90;;;;;;6185674;23;20019;-82
2021/01/06 08:21:54;;;;;;;24.30;12.32;;;0.90;99.90;;;;;;6185004;23;20044;-82
2021/01/06 08:24:20;;;;;;;19.63;12.07;;;0.90;99.90;;;;;;6129212;23;20048;-83
2021/01/06 08:26:50;;;;;;;18.73;11.13;;;1.00;99.90;;;;;;6191094;23;20047;-83
2021/01/06 08:29:21;;;;;;;15.63;10.88;;;1.00;99.90;;;;;;6191797;23;20059;-83
2021/01/06 08:31:51;;;;;;;14.75;9.32;;;1.10;99.90;;;;;;6191827;23;20021;-83
2021/01/06 08:34:32;;;;;;;16.75;10.57;;;1.10;99.90;;;;;;6189940;23;20037;-83
2021/01/06 08:37:12;;;;;;;15.40;9.05;;;1.10;99.90;;;;;;6189740;23;20043;-83
2021/01/06 08:39:52;;;;;;;15.52;8.90;;;1.10;99.90;;;;;;6190769;23;20056;-82
2021/01/06 08:42:22;;;;;;;15.30;9.63;;;1.10;99.90;;;;;;6190983;23;20054;-83
2021/01/06 08:44:54;;;;;;;22.40;15.10;;;1.00;99.90;;;;;;6189364;23;20025;-83
2021/01/06 08:47:31;;;;;;;13.68;9.63;;;1.00;99.90;;;;;;6190779;23;20046;-83
2021/01/06 08:50:16;;;;;;;15.82;10.70;;;1.20;99.90;;;;;;6190596;23;20028;-83
2021/01/06 08:52:50;;;;;;;24.70;15.18;;;1.20;99.90;;;;;;6188027;23;20021;-82
2021/01/06 08:55:23;;;;;;;14.75;9.77;;;1.20;99.90;;;;;;6190462;23;20063;-82
2021/01/06 08:58:00;;;;;;;16.50;9.35;;;1.30;99.90;;;;;;6188737;23;20052;-82
2021/01/06 09:00:33;;;;;;;11.20;8.05;;;1.20;99.90;;;;;;6189378;23;20460;-83
2021/01/06 09:03:21;;;;;;;12.05;7.80;;;1.30;99.90;;;;;;6188414;23;20036;-84
2021/01/06 09:06:18;;;;;;;13.05;8.85;;;1.40;99.90;;;;;;6190039;23;20460;-84
2021/01/06 09:08:46;;;;;;;13.48;9.10;;;1.40;99.90;;;;;;6190339;23;20032;-84
2021/01/06 09:11:16;;;;;;;16.27;9.68;;;1.20;99.90;;;;;;6188876;23;20128;-85
2021/01/06 09:13:48;;;;;;;15.43;9.85;;;1.30;99.90;;;;;;6188057;23;20100;-85
2021/01/06 09:16:49;;;;;;;12.35;8.27;;;1.40;99.90;;;;;;6187941;23;20083;-85
2021/01/06 09:19:33;;;;;;;11.63;8.02;;;1.40;99.90;;;;;;6187333;23;20025;-85
2021/01/06 09:22:00;;;;;;;11.85;9.18;;;1.40;99.90;;;;;;6191838;23;20021;-86
2021/01/06 09:24:32;;;;;;;10.88;7.80;;;1.40;99.90;;;;;;6188186;23;20044;-86
2021/01/06 09:27:04;;;;;;;15.70;10.15;;;1.40;99.90;;;;;;6188184;23;20025;-85
2021/01/06 09:29:37;;;;;;;16.75;10.02;;;1.30;99.90;;;;;;6187979;23;20029;-85
2021/01/06 09:32:12;;;;;;;15.25;8.98;;;1.20;99.90;;;;;;6187530;23;20021;-85
2021/01/06 09:34:49;;;;;;;17.55;10.02;;;1.20;99.90;;;;;;6188233;23;20029;-85
2021/01/06 09:37:26;;;;;;;18.88;9.90;;;1.10;99.90;;;;;;6187126;23;20468;-84
2021/01/06 09:39:55;;;;;;;17.52;10.60;;;1.10;99.90;;;;;;6188165;23;20056;-84
2021/01/06 09:42:22;;;;;;;20.52;10.85;;;1.10;99.90;;;;;;6189673;23;20044;-85
2021/01/06 09:44:49;;;;;;;17.90;9.82;;;1.10;99.90;;;;;;6187071;23;20059;-86
2021/01/06 09:47:26;;;;;;;18.73;10.70;;;1.10;99.90;;;;;;6187296;23;20055;-86
2021/01/06 09:49:58;;;;;;;22.15;10.38;;;1.10;99.90;;;;;;6187054;23;20055;-85
2021/01/06 09:52:35;;;;;;;17.73;10.35;;;1.10;99.90;;;;;;6186236;23;20062;-85
2021/01/06 09:55:06;;;;;;;22.90;10.85;;;1.10;99.90;;;;;;6185800;23;20079;-86
2021/01/06 09:57:33;;;;;;;22.42;10.82;;;1.10;99.90;;;;;;6184292;23;20057;-86
2021/01/06 10:00:18;;;;;;;21.10;10.57;;;1.10;99.90;;;;;;6184130;23;20116;-86
2021/01/06 10:02:49;;;;;;;21.17;10.35;;;1.10;99.90;;;;;;6184470;23;20460;-86
2021/01/06 10:05:46;;;;;;;19.92;9.88;;;1.20;99.90;;;;;;6183648;23;20040;-87
2021/01/06 10:08:40;;;;;;;27.48;10.43;;;1.20;99.90;;;;;;6183847;23;20389;-87
2021/01/06 10:11:27;;;;;;;29.40;9.60;;;1.40;99.90;;;;;;6184772;23;20048;-88
2021/01/06 10:14:24;;;;;;;17.40;9.73;;;1.40;99.90;;;;;;6187438;23;20055;-87
2021/01/06 10:17:08;;;;;;;16.63;9.55;;;1.40;99.90;;;;;;6158904;23;20017;-87
2021/01/06 10:19:50;;;;;;;18.85;10.60;;;1.40;99.90;;;;;;6158542;23;20013;-87
2021/01/06 10:22:44;;;;;;;14.68;9.20;;;1.40;99.90;;;;;;6158766;23;20511;-87
2021/01/06 10:25:34;;;;;;;14.75;9.20;;;1.30;99.90;;;;;;6159743;23;20025;-86
2021/01/06 10:28:19;;;;;;;14.82;9.25;;;1.30;99.90;;;;;;6159815;23;20028;-86
2021/01/06 10:31:10;;;;;;;16.73;9.10;;;1.30;99.90;;;;;;6186738;23;20052;-84
2021/01/06 10:34:02;;;;;;;13.98;8.80;;;1.30;99.90;;;;;;6187166;23;20021;-86
2021/01/06 10:36:53;;;;;;;14.90;9.57;;;1.30;99.90;;;;;;6160492;23;20025;-86
2021/01/06 10:39:23;;;;;;;14.95;10.25;;;1.30;99.90;;;;;;6160716;23;20153;-86
2021/01/06 10:42:05;;;;;;;11.88;8.38;;;1.40;99.90;;;;;;6160751;23;20021;-86
2021/01/06 10:44:36;;;;;;;9.57;7.60;;;1.40;99.90;;;;;;6159704;23;20033;-86
2021/01/06 10:47:25;;;;;;;9.38;6.97;;;1.50;99.90;;;;;;6160936;23;20084;-85
2021/01/06 10:49:55;;;;;;;8.95;6.60;;;1.40;99.90;;;;;;6138210;23;20036;-85
2021/01/06 10:52:24;;;;;;;7.75;6.13;;;1.40;99.90;;;;;;6161136;23;20032;-86
2021/01/06 10:54:52;;;;;;;6.10;5.43;;;1.40;99.90;;;;;;6161137;23;20079;-86
2021/01/06 10:57:37;;;;;;;6.75;5.78;;;1.50;99.90;;;;;;6162251;23;20407;-85
2021/01/06 11:00:13;;;;;;;6.28;5.68;;;1.50;99.90;;;;;;6162200;23;20017;-86
2021/01/06 11:03:07;;;;;;;8.07;6.47;;;1.50;99.90;;;;;;6163157;23;20017;-86
2021/01/06 11:05:46;;;;;;;9.45;5.93;;;1.60;99.90;;;;;;6162955;23;20092;-86
2021/01/06 11:08:37;;;;;;;6.25;5.50;;;1.80;99.90;;;;;;6189005;23;20349;-84
2021/01/06 11:11:22;;;;;;;6.60;5.65;;;1.80;99.90;;;;;;6163247;23;20032;-84
2021/01/06 11:14:04;;;;;;;6.30;5.70;;;1.80;99.90;;;;;;6189658;23;20360;-84
2021/01/06 11:16:48;;;;;;;6.80;5.75;;;1.60;99.90;;;;;;6163100;23;20502;-84
2021/01/06 11:19:48;;;;;;;8.63;6.38;;;1.60;99.90;;;;;;6163274;23;20087;-83
2021/01/06 11:22:44;;;;;;;8.25;6.68;;;1.50;99.90;;;;;;6190079;23;20055;-82
2021/01/06 11:25:35;;;;;;;9.00;7.30;;;1.50;99.90;;;;;;6162938;23;20356;-84
2021/01/06 11:28:04;;;;;;;9.77;7.40;;;1.60;99.90;;;;;;6163473;23;20021;-84
2021/01/06 11:30:33;;;;;;;38.10;10.07;;;1.60;99.90;;;;;;6163529;23;20024;-84
2021/01/06 11:33:14;;;;;;;14.25;7.50;;;1.70;99.90;;;;;;6189181;23;20025;-83
2021/01/06 11:35:51;;;;;;;9.55;7.03;;;1.60;99.90;;;;;;6188590;23;20503;-82
2021/01/06 11:38:39;;;;;;;7.82;6.38;;;1.70;99.90;;;;;;6162387;23;20451;-82
2021/01/06 11:41:09;;;;;;;9.57;7.60;;;1.60;99.90;;;;;;6162087;23;20035;-82
2021/01/06 11:43:56;;;;;;;8.60;7.00;;;1.60;99.90;;;;;;6188469;23;20100;-82
2021/01/06 11:46:25;;;;;;;9.80;6.97;;;1.60;99.90;;;;;;6188038;23;20024;-82
2021/01/06 11:49:22;;;;;;;9.00;7.03;;;1.70;99.90;;;;;;6188012;23;20028;-81
2021/01/06 11:52:22;;;;;;;8.43;7.22;;;1.60;99.90;;;;;;6163085;23;20025;-82
2021/01/06 11:55:12;;;;;;;10.63;7.68;;;1.60;99.90;;;;;;6188954;23;20017;-81
2021/01/06 11:58:02;;;;;;;11.32;8.25;;;1.50;99.90;;;;;;6163311;23;20033;-81
2021/01/06 12:00:49;;;;;;;12.93;10.13;;;1.40;99.90;;;;;;6188165;23;20048;-82
2021/01/06 12:03:37;;;;;;;8.57;7.68;;;1.50;99.90;;;;;;6213810;23;20009;-79
2021/01/06 12:06:37;;;;;;;7.25;6.55;;;1.50;99.90;;;;;;6186718;23;20072;-81
2021/01/06 12:09:17;;;;;;;14.70;11.68;;;1.60;99.90;;;;;;6186487;23;20455;-82
2021/01/06 12:12:04;;;;;;;10.73;8.75;;;1.60;99.90;;;;;;6187111;23;20088;-81
2021/01/06 12:14:59;;;;;;;26.83;13.70;;;1.70;99.90;;;;;;6161363;23;20017;-82
2021/01/06 12:17:33;;;;;;;7.80;6.50;;;1.90;99.90;;;;;;6187710;23;20096;-81
2021/01/06 12:20:18;;;;;;;7.30;6.60;;;1.90;99.90;;;;;;6162028;23;20443;-82
2021/01/06 12:23:17;;;;;;;10.13;7.72;;;1.90;99.90;;;;;;6187545;23;20028;-81
2021/01/06 12:25:50;;;;;;;7.28;6.25;;;1.90;99.90;;;;;;6188572;23;20044;-82
2021/01/06 12:28:41;;;;;;;20.40;14.93;;;1.70;99.90;;;;;;6162201;23;20381;-82
2021/01/06 12:31:56;;;;;;;10.23;7.07;;;1.60;99.90;;;;;;6188926;23;20020;-82
2021/01/06 12:34:43;;;;;;;17.35;10.90;;;1.60;99.90;;;;;;6040208;23;20415;-82
2021/01/06 12:37:12;;;;;;;799.75;416.25;;;1.70;99.90;;;;;;6190475;23;20072;-81
2021/01/06 12:40:11;;;;;;;219.30;108.82;;;1.70;99.90;;;;;;6163594;23;20060;-82
2021/01/06 12:42:58;;;;;;;26.90;16.13;;;1.90;99.90;;;;;;6109204;23;20021;-81
2021/01/06 12:45:38;;;;;;;9.63;7.10;;;1.90;99.90;;;;;;6163423;23;20021;-82
2021/01/06 12:48:04;;;;;;;5.75;5.15;;;2.00;99.90;;;;;;6191114;23;20021;-82
2021/01/06 12:50:58;;;;;;;18.67;14.52;;;2.10;99.90;;;;;;6192144;23;20356;-81
2021/01/06 12:53:32;;;;;;;19.00;14.02;;;2.30;99.90;;;;;;6189792;23;20031;-82
2021/01/06 12:56:25;;;;;;;5.18;4.78;;;2.40;99.90;;;;;;6163740;23;20053;-82
2021/01/06 12:59:21;;;;;;;4.45;4.05;;;2.30;99.90;;;;;;6146742;23;20075;-81
2021/01/06 13:01:59;;;;;;;6.55;4.68;;;2.00;99.90;;;;;;6162754;23;20055;-82
2021/01/06 13:04:35;;;;;;;6.45;4.13;;;2.10;99.90;;;;;;6189364;23;20021;-82
2021/01/06 13:07:14;;;;;;;4.47;4.10;;;2.10;99.90;;;;;;6190954;23;20049;-81
2021/01/06 13:09:59;;;;;;;4.07;3.67;;;2.20;99.90;;;;;;6190915;23;20025;-80
2021/01/06 13:12:31;;;;;;;4.20;3.90;;;2.20;99.90;;;;;;6168648;23;20087;-81
2021/01/06 13:15:21;;;;;;;4.00;3.70;;;2.20;99.90;;;;;;6190594;23;20020;-81
2021/01/06 13:18:23;;;;;;;4.68;4.28;;;2.00;99.90;;;;;;6191803;23;20067;-82
2021/01/06 13:21:33;;;;;;;4.88;4.43;;;1.90;99.90;;;;;;6144787;23;20063;-81
2021/01/06 13:24:15;;;;;;;6.40;4.95;;;1.90;99.90;;;;;;6187218;23;20095;-80
2021/01/06 13:26:57;;;;;;;5.95;5.00;;;1.70;99.90;;;;;;6193355;23;20025;-80
2021/01/06 13:29:31;;;;;;;6.82;5.60;;;1.70;99.90;;;;;;6192836;23;20514;-80
2021/01/06 13:32:14;;;;;;;5.43;4.78;;;1.60;99.90;;;;;;6189438;23;20028;-80
2021/01/06 13:34:52;;;;;;;6.18;4.75;;;1.70;99.90;;;;;;6192915;23;20021;-80
2021/01/06 13:37:20;;;;;;;13.55;8.70;;;1.80;99.90;;;;;;6193232;23;20056;-79
2021/01/06 13:40:12;;;;;;;6.03;5.45;;;1.80;99.90;;;;;;6190918;23;20064;-80
2021/01/06 13:42:43;;;;;;;8.90;6.75;;;1.80;99.90;;;;;;6191736;23;20053;-80
2021/01/06 13:45:14;;;;;;;8.90;7.22;;;1.90;99.90;;;;;;6189816;23;20021;-80
2021/01/06 13:47:48;;;;;;;6.68;5.15;;;1.90;99.90;;;;;;6191864;23;20528;-79
2021/01/06 13:50:31;;;;;;;7.18;6.05;;;2.00;99.90;;;;;;6191278;23;20055;-80